TimeEST,TemperatureF,Dew PointF,Humidity,Sea Level PressureIn,VisibilityMPH,Wind Direction,Wind SpeedMPH,Gust SpeedMPH,PrecipitationIn,Events,Conditions,WindDirDegrees,DateUTC
12:53 AM,39.9,28.0,63,30.03,10.0,NW,4.6,-,N/A,,Clear,310,2013-02-15 05:53:00
1:53 AM,32.0,27.0,82,30.03,10.0,Calm,Calm,-,N/A,,Clear,0,2013-02-15 06:53:00
2:53 AM,30.0,28.0,92,30.03,10.0,Calm,Calm,-,N/A,,Clear,0,2013-02-15 07:53:00
3:53 AM,28.0,26.1,92,30.03,10.0,Calm,Calm,-,N/A,,Overcast,0,2013-02-15 08:53:00
4:53 AM,28.0,27.0,96,30.05,9.0,Calm,Calm,-,N/A,,Overcast,0,2013-02-15 09:53:00
5:53 AM,28.9,27.0,92,30.06,9.0,Calm,Calm,-,N/A,,Overcast,0,2013-02-15 10:53:00
6:53 AM,28.9,27.0,92,30.08,9.0,Calm,Calm,-,N/A,,Mostly Cloudy,0,2013-02-15 11:53:00
7:53 AM,30.0,28.0,92,30.09,8.0,Calm,Calm,-,N/A,,Mostly Cloudy,0,2013-02-15 12:53:00
8:53 AM,32.0,30.0,92,30.11,9.0,Calm,Calm,-,N/A,,Overcast,0,2013-02-15 13:53:00
9:53 AM,37.9,30.9,76,30.12,10.0,SW,11.5,-,N/A,,Overcast,230,2013-02-15 14:53:00
10:53 AM,39.0,30.9,73,30.10,10.0,WSW,9.2,-,0.00,,Overcast,250,2013-02-15 15:53:00
11:53 AM,41.0,28.9,62,30.09,10.0,WSW,9.2,-,N/A,,Mostly Cloudy,240,2013-02-15 16:53:00
12:53 PM,39.9,30.0,68,30.09,10.0,West,8.1,-,0.00,,Overcast,260,2013-02-15 17:53:00
1:53 PM,39.9,26.1,58,30.08,10.0,West,16.1,-,N/A,,Overcast,270,2013-02-15 18:53:00
2:53 PM,42.1,28.0,58,30.07,10.0,SW,9.2,-,N/A,,Mostly Cloudy,230,2013-02-15 19:53:00
3:53 PM,39.9,26.1,58,30.09,10.0,NW,11.5,-,N/A,,Overcast,310,2013-02-15 20:53:00
4:53 PM,37.9,27.0,65,30.12,10.0,NNW,8.1,-,N/A,,Overcast,330,2013-02-15 21:53:00
5:53 PM,35.1,26.1,70,30.14,7.0,NW,9.2,16.1,0.00,Snow,Light Snow,310,2013-02-15 22:53:00
6:53 PM,33.1,23.0,66,30.17,10.0,NW,10.4,18.4,0.00,,Partly Cloudy,320,2013-02-15 23:53:00
7:53 PM,32.0,24.1,73,30.19,10.0,NW,5.8,-,N/A,,Mostly Cloudy,320,2013-02-16 00:53:00
8:53 PM,30.0,23.0,75,30.19,10.0,NW,5.8,-,N/A,,Mostly Cloudy,320,2013-02-16 01:53:00
9:53 PM,30.0,23.0,75,30.19,10.0,Calm,Calm,-,N/A,,Clear,0,2013-02-16 02:53:00
10:53 PM,28.9,23.0,78,30.19,10.0,Calm,Calm,-,N/A,,Clear,0,2013-02-16 03:53:00
11:53 PM,27.0,21.0,78,30.19,10.0,NNW,3.5,-,N/A,,Clear,330,2013-02-16 04:53:00